Time;durP1;ratioP1;P1;durP2;ratioP2;P2;SDS_P1;SDS_P2;PMS_P1;PMS_P2;Temp;Humidity;BMP_temperature;BMP_pressure;BME280_temperature;BME280_humidity;BME280_pressure;Samples;Min_cycle;Max_cycle;Signal;HPM_P1;HPM_P2
2022/05/22 00:00:24;;;;;;;16.13;9.50;;;;;;;12.29;94.62;101719.41;5032435;28;20433;-45
2022/05/22 00:02:52;;;;;;;9.53;8.73;;;;;;;12.32;95.12;101724.38;5032058;28;20857;-46
2022/05/22 00:05:23;;;;;;;10.57;8.20;;;;;;;12.33;95.17;101723.38;5032292;28;20479;-48
2022/05/22 00:07:51;;;;;;;11.80;8.87;;;;;;;12.36;95.88;101731.03;5032837;28;20928;-46
2022/05/22 00:10:20;;;;;;;11.87;9.17;;;;;;;12.32;95.74;101724.38;5031983;28;21120;-45
2022/05/22 00:12:47;;;;;;;16.30;8.80;;;;;;;12.37;95.55;101731.84;5031096;28;20471;-48
2022/05/22 00:15:16;;;;;;;9.97;8.87;;;;;;;12.36;95.39;101725.69;5032176;28;20428;-49
2022/05/22 00:17:45;;;;;;;16.50;8.73;;;;;;;12.36;95.11;101717.66;5032113;28;20439;-49
2022/05/22 00:20:13;;;;;;;16.57;9.63;;;;;;;12.31;95.74;101727.22;5032214;28;20442;-46
2022/05/22 00:22:43;;;;;;;18.43;9.90;;;;;;;12.29;95.76;101722.09;5031783;28;20464;-45
2022/05/22 00:25:11;;;;;;;10.57;8.93;;;;;;;12.30;95.74;101721.06;5032106;28;20478;-48
2022/05/22 00:27:40;;;;;;;14.80;9.83;;;;;;;12.29;95.67;101722.09;5032130;28;20438;-46
2022/05/22 00:30:09;;;;;;;12.90;9.77;;;;;;;12.35;95.82;101726.69;5031996;28;20436;-47
2022/05/22 00:32:37;;;;;;;10.20;9.17;;;;;;;12.36;95.71;101727.53;5031322;28;20455;-48
2022/05/22 00:35:06;;;;;;;10.87;9.77;;;;;;;12.36;95.53;101711.47;5032186;28;20428;-49
2022/05/22 00:37:34;;;;;;;15.00;9.33;;;;;;;12.33;95.46;101715.34;5031882;28;20440;-45
2022/05/22 00:40:05;;;;;;;10.33;9.30;;;;;;;12.30;95.13;101721.06;5031826;28;20432;-48
2022/05/22 00:42:32;;;;;;;10.90;9.43;;;;;;;12.29;95.08;101710.53;5031171;28;20579;-47
2022/05/22 00:45:00;;;;;;;10.53;9.33;;;;;;;12.28;94.83;101720.41;5031703;28;20525;-46
2022/05/22 00:47:28;;;;;;;11.53;10.40;;;;;;;12.28;94.99;101716.91;5032024;28;20937;-48
2022/05/22 00:50:00;;;;;;;10.10;9.13;;;;;;;12.27;95.11;101729.47;5031687;28;20946;-48
2022/05/22 00:52:33;;;;;;;10.43;9.53;;;;;;;12.26;94.78;101726.97;5031148;28;20452;-49
2022/05/22 00:55:06;;;;;;;17.60;9.20;;;;;;;12.28;95.18;101722.25;5030016;28;20458;-46
2022/05/22 00:57:39;;;;;;;11.83;10.70;;;;;;;12.27;95.22;101712.59;5029342;28;20440;-47
2022/05/22 01:00:09;;;;;;;13.00;9.90;;;;;;;12.27;95.61;101716.09;5021691;28;21244;-48
2022/05/22 01:05:23;;;;;;;12.03;10.70;;;;;;;12.26;95.86;101711.75;5031535;28;20464;-49
2022/05/22 01:07:51;;;;;;;10.73;9.73;;;;;;;12.28;96.39;101708.88;5031405;28;20444;-51
2022/05/22 01:10:21;;;;;;;12.43;11.03;;;;;;;12.27;96.51;101708.06;5031485;28;20420;-48
2022/05/22 01:12:50;;;;;;;18.67;10.93;;;;;;;12.31;96.49;101708.50;5031331;28;20464;-49
2022/05/22 01:15:18;;;;;;;12.17;9.83;;;;;;;12.36;96.63;101712.31;5031612;28;20463;-50
2022/05/22 01:17:48;;;;;;;9.87;9.07;;;;;;;12.38;96.90;101704.94;5031525;28;20520;-46
2022/05/22 01:20:17;;;;;;;11.53;9.63;;;;;;;12.40;96.52;101710.06;5031234;28;20432;-45
2022/05/22 01:22:46;;;;;;;23.77;10.50;;;;;;;12.37;96.60;101697.91;5030941;28;20984;-46
2022/05/22 01:25:13;;;;;;;11.13;10.00;;;;;;;12.38;96.88;101699.59;5033591;28;20513;-47
2022/05/22 01:27:41;;;;;;;13.50;10.20;;;;;;;12.42;96.96;101705.41;5035311;28;20435;-48
2022/05/22 01:30:13;;;;;;;11.97;9.97;;;;;;;12.44;96.77;101703.34;5035335;28;20432;-50
2022/05/22 01:32:44;;;;;;;15.13;9.97;;;;;;;12.45;96.63;101711.22;5034782;28;20472;-47
2022/05/22 01:35:15;;;;;;;11.43;10.30;;;;;;;12.46;96.59;101712.84;5035217;28;20995;-47
2022/05/22 01:37:43;;;;;;;12.70;10.50;;;;;;;12.47;96.36;101714.53;5035291;28;20440;-46
2022/05/22 01:40:14;;;;;;;10.43;9.53;;;;;;;12.52;96.29;101705.91;5035059;28;20455;-46
2022/05/22 01:42:42;;;;;;;11.00;9.97;;;;;;;12.52;96.08;101712.13;5034585;28;20466;-46
2022/05/22 01:45:12;;;;;;;14.00;10.63;;;;;;;12.54;96.26;101715.44;5035010;28;20486;-46
2022/05/22 01:47:41;;;;;;;12.17;10.70;;;;;;;12.55;96.38;101706.38;5035585;28;20442;-48
2022/05/22 01:50:10;;;;;;;12.37;11.00;;;;;;;12.56;95.79;101712.56;5035167;28;20428;-48
2022/05/22 01:52:38;;;;;;;16.93;10.33;;;;;;;12.58;95.89;101715.88;5034507;28;20464;-46
2022/05/22 01:55:06;;;;;;;13.40;10.27;;;;;;;12.59;95.82;101706.84;5035045;28;20435;-50
2022/05/22 01:57:35;;;;;;;17.70;11.07;;;;;;;12.58;95.78;101713.22;5034828;28;20436;-47
2022/05/22 02:00:05;;;;;;;14.93;11.07;;;;;;;12.59;96.11;101709.53;5034690;28;20431;-46
2022/05/22 02:02:32;;;;;;;14.37;11.30;;;;;;;12.57;95.49;101717.72;5034222;28;20486;-46
2022/05/22 02:05:02;;;;;;;10.83;10.13;;;;;;;12.56;95.92;101718.75;5034765;28;20464;-46
2022/05/22 02:10:15;;;;;;;15.97;9.70;;;;;;;12.52;95.70;101716.63;5034336;28;20942;-48
2022/05/22 02:12:44;;;;;;;15.27;11.60;;;;;;;12.51;96.01;101721.19;5034200;28;20550;-48
2022/05/22 02:15:12;;;;;;;12.17;10.87;;;;;;;12.49;96.02;101717.84;5034633;28;20771;-46
2022/05/22 02:17:40;;;;;;;11.57;10.37;;;;;;;12.49;96.36;101704.47;5034583;28;20435;-50
2022/05/22 02:20:08;;;;;;;12.10;10.13;;;;;;;12.49;96.23;101711.66;5034468;28;20440;-51
2022/05/22 02:22:40;;;;;;;15.20;11.50;;;;;;;12.46;96.36;101710.19;5033645;28;20478;-50
2022/05/22 02:25:08;;;;;;;11.83;10.73;;;;;;;12.44;96.42;101703.34;5034346;28;20429;-52
2022/05/22 02:27:36;;;;;;;12.53;11.30;;;;;;;12.44;96.76;101706.88;5034400;28;20472;-48
2022/05/22 02:30:08;;;;;;;11.50;10.30;;;;;;;12.45;96.83;101697.84;5034423;28;20850;-47
2022/05/22 02:32:37;;;;;;;12.70;10.40;;;;;;;12.46;96.67;101694.13;5033159;28;20455;-49
2022/05/22 02:35:07;;;;;;;12.17;10.63;;;;;;;12.45;96.76;101705.88;5034098;28;20436;-49
2022/05/22 02:37:41;;;;;;;17.90;10.47;;;;;;;12.44;96.53;101692.66;5033056;28;20532;-52
2022/05/22 02:40:10;;;;;;;13.93;10.83;;;;;;;12.44;96.78;101698.84;5034191;28;20794;-46
2022/05/22 02:42:39;;;;;;;19.03;11.10;;;;;;;12.42;96.91;101686.66;5033499;28;20468;-48
2022/05/22 02:45:10;;;;;;;17.57;11.47;;;;;;;12.42;97.07;101679.47;5034087;28;20973;-48
2022/05/22 02:47:38;;;;;;;17.63;10.60;;;;;;;12.42;97.11;101674.13;5033861;28;20475;-49
2022/05/22 02:50:08;;;;;;;12.23;10.97;;;;;;;12.40;97.09;101673.47;5033734;28;20420;-48
2022/05/22 02:52:36;;;;;;;14.77;11.27;;;;;;;12.36;97.07;101684.72;5033322;28;20453;-48
2022/05/22 02:55:04;;;;;;;14.47;10.67;;;;;;;12.34;97.39;101681.41;5033874;28;20428;-50
2022/05/22 02:57:33;;;;;;;23.70;12.43;;;;;;;12.37;97.79;101686.38;5033799;28;20463;-48
2022/05/22 03:00:01;;;;;;;31.10;11.70;;;;;;;12.28;97.67;101674.94;5033686;28;20462;-48
2022/05/22 03:02:30;;;;;;;13.67;12.40;;;;;;;12.32;97.92;101683.44;5032829;28;20463;-48
2022/05/22 03:04:57;;;;;;;11.90;10.33;;;;;;;12.32;97.95;101686.94;5033721;28;20432;-45
2022/05/22 03:07:25;;;;;;;12.73;11.13;;;;;;;12.30;98.03;101662.25;5033647;28;20476;-51
2022/05/22 03:09:53;;;;;;;19.53;11.30;;;;;;;12.32;97.97;101670.06;5033540;28;20428;-45
2022/05/22 03:12:22;;;;;;;15.40;11.37;;;;;;;12.32;98.02;101680.75;5032766;28;20459;-48
2022/05/22 03:14:52;;;;;;;12.03;10.80;;;;;;;12.31;97.80;101671.06;5033329;28;20428;-51
2022/05/22 03:17:20;;;;;;;10.90;10.10;;;;;;;12.28;97.88;101672.28;5034047;28;20432;-52
2022/05/22 03:19:49;;;;;;;14.23;10.67;;;;;;;12.29;97.71;101678.47;5033436;28;20424;-48
2022/05/22 03:22:16;;;;;;;11.20;10.20;;;;;;;12.29;97.87;101673.94;5032431;28;20547;-49
2022/05/22 03:24:44;;;;;;;12.20;9.97;;;;;;;12.28;97.23;101682.13;5033252;28;20438;-46
2022/05/22 03:27:14;;;;;;;10.93;9.90;;;;;;;12.30;97.58;101680.97;5033045;28;20472;-51
2022/05/22 03:29:43;;;;;;;11.90;10.77;;;;;;;12.29;97.51;101678.47;5033040;28;20437;-48
2022/05/22 03:32:11;;;;;;;11.50;10.30;;;;;;;12.29;97.44;101679.28;5032212;28;20474;-48
2022/05/22 03:34:39;;;;;;;16.87;9.83;;;;;;;12.30;97.44;101680.13;5033163;28;20814;-48
2022/05/22 03:37:09;;;;;;;10.67;9.50;;;;;;;12.32;97.62;101688.78;5032919;28;20930;-49
2022/05/22 03:39:37;;;;;;;10.40;9.40;;;;;;;12.35;97.65;101689.25;5032993;28;20454;-49
2022/05/22 03:42:06;;;;;;;14.63;10.50;;;;;;;12.33;97.57;101691.28;5032128;28;20452;-49
2022/05/22 03:44:36;;;;;;;12.73;9.60;;;;;;;12.36;97.52;101698.09;5032965;28;20432;-49
2022/05/22 03:47:04;;;;;;;11.93;10.80;;;;;;;12.37;97.29;101697.91;5032681;28;20476;-50
2022/05/22 03:49:32;;;;;;;11.53;10.30;;;;;;;12.36;97.21;101698.09;5032754;28;20437;-52
2022/05/22 03:51:59;;;;;;;10.87;9.80;;;;;;;12.38;97.35;101710.28;5032452;28;20452;-49
2022/05/22 03:54:28;;;;;;;14.87;10.27;;;;;;;12.38;97.31;101702.25;5032173;28;20475;-52
2022/05/22 03:56:56;;;;;;;9.73;8.93;;;;;;;12.41;97.27;101691.19;5032808;28;20432;-50
2022/05/22 03:59:25;;;;;;;15.20;9.87;;;;;;;12.45;97.42;101699.69;5032537;28;20583;-49
2022/05/22 04:01:53;;;;;;;9.67;8.90;;;;;;;12.48;97.68;101700.13;5032348;28;20452;-52
2022/05/22 04:04:21;;;;;;;11.07;9.20;;;;;;;12.51;97.52;101690.91;5031996;28;21020;-52
2022/05/22 04:06:49;;;;;;;10.33;9.47;;;;;;;12.49;97.22;101698.28;5032294;28;20474;-50
2022/05/22 04:09:16;;;;;;;14.10;8.87;;;;;;;12.55;97.18;101700.19;5032298;28;20934;-50
2022/05/22 04:11:45;;;;;;;18.77;9.67;;;;;;;12.56;97.19;101697.34;5032041;28;20456;-49
2022/05/22 04:14:13;;;;;;;9.10;8.40;;;;;;;12.61;97.41;101696.78;5031791;28;20471;-49
2022/05/22 04:16:41;;;;;;;11.00;8.90;;;;;;;12.62;97.60;101703.81;5032297;28;20432;-50
2022/05/22 04:19:08;;;;;;;14.60;9.90;;;;;;;12.61;97.07;101694.94;5032191;28;20522;-49
2022/05/22 04:21:36;;;;;;;12.23;9.70;;;;;;;12.62;97.25;101701.97;5031850;28;20454;-49
2022/05/22 04:26:51;;;;;;;14.87;9.53;;;;;;;12.62;97.11;101712.66;5032170;28;20432;-50
2022/05/22 04:29:19;;;;;;;9.50;8.60;;;;;;;12.66;96.91;101718.47;5032080;28;20446;-47
2022/05/22 04:31:47;;;;;;;9.33;8.50;;;;;;;12.67;96.94;101712.94;5031529;28;20463;-51
2022/05/22 04:34:14;;;;;;;10.00;8.40;;;;;;;12.73;97.11;101706.00;5031428;28;20467;-50
2022/05/22 04:36:42;;;;;;;9.97;9.00;;;;;;;12.83;96.94;101713.75;5031880;28;20930;-50
2022/05/22 04:39:11;;;;;;;11.83;8.57;;;;;;;12.90;96.88;101715.50;5031933;28;20442;-49
2022/05/22 04:41:38;;;;;;;8.60;7.90;;;;;;;12.95;96.74;101714.91;5031718;28;20448;-47
2022/05/22 04:44:07;;;;;;;13.30;8.40;;;;;;;12.94;96.44;101707.88;5031392;28;20463;-48
2022/05/22 04:46:35;;;;;;;14.27;8.27;;;;;;;12.94;96.43;101695.34;5031717;28;20953;-47
2022/05/22 04:49:02;;;;;;;12.10;8.93;;;;;;;12.99;96.22;101698.25;5031845;28;20526;-50
2022/05/22 04:51:30;;;;;;;9.17;8.20;;;;;;;13.04;96.57;101700.38;5031432;28;21056;-47
2022/05/22 04:53:58;;;;;;;8.87;7.93;;;;;;;13.09;96.04;101700.69;5031300;28;21001;-51
2022/05/22 04:56:26;;;;;;;16.40;8.37;;;;;;;13.17;96.06;101698.69;5031803;28;20420;-48
2022/05/22 04:58:54;;;;;;;16.23;8.67;;;;;;;13.25;95.40;101689.72;5031070;28;20433;-49
2022/05/22 05:01:23;;;;;;;10.83;9.17;;;;;;;13.34;95.56;101699.31;5031570;28;20495;-47
2022/05/22 05:03:51;;;;;;;12.77;8.90;;;;;;;13.41;94.96;101705.53;5031233;28;20464;-45
2022/05/22 05:06:19;;;;;;;11.37;8.30;;;;;;;13.46;94.10;101694.25;5031734;28;20438;-49
2022/05/22 05:08:46;;;;;;;12.57;8.37;;;;;;;13.54;94.27;101707.50;5031642;28;20484;-50
2022/05/22 05:11:14;;;;;;;11.23;7.80;;;;;;;13.58;94.08;101698.91;5031285;28;20813;-47
2022/05/22 05:13:41;;;;;;;9.77;8.17;;;;;;;13.63;93.50;101701.00;5031049;28;20460;-47
2022/05/22 05:16:11;;;;;;;10.83;7.70;;;;;;;13.64;93.16;101698.16;5031734;28;20432;-49
2022/05/22 05:18:41;;;;;;;12.90;8.80;;;;;;;13.65;92.52;101696.28;5031647;28;20429;-47
2022/05/22 05:21:12;;;;;;;14.37;9.20;;;;;;;13.68;92.46;101710.13;5031302;28;21128;-47
2022/05/22 05:23:40;;;;;;;10.87;8.37;;;;;;;13.69;92.37;101709.09;5031040;28;21039;-48
2022/05/22 05:26:08;;;;;;;11.17;8.53;;;;;;;13.76;92.79;101696.59;5031338;28;20436;-50
2022/05/22 05:28:36;;;;;;;10.00;8.20;;;;;;;13.80;92.27;101694.31;5031312;28;20478;-45
2022/05/22 05:31:04;;;;;;;10.17;8.43;;;;;;;13.80;91.45;101703.22;5031145;28;20468;-47
2022/05/22 05:33:33;;;;;;;10.07;8.07;;;;;;;13.78;90.34;101696.38;5030863;28;20547;-51
2022/05/22 05:36:02;;;;;;;9.50;8.50;;;;;;;13.81;90.81;101698.69;5031428;28;20436;-46
2022/05/22 05:38:30;;;;;;;13.40;9.10;;;;;;;13.80;90.36;101705.06;5031374;28;20432;-50
2022/05/22 05:41:18;;;;;;;10.57;9.27;;;;;;;13.80;90.74;101697.84;5031200;28;20851;-49
2022/05/22 05:43:46;;;;;;;15.23;9.00;;;;;;;13.85;90.63;101697.28;5030967;28;20478;-47
2022/05/22 05:46:13;;;;;;;11.70;8.37;;;;;;;13.92;91.23;101700.00;5031280;28;20439;-47
2022/05/22 05:48:42;;;;;;;13.97;8.73;;;;;;;13.95;90.76;101700.44;5031181;28;20511;-51
2022/05/22 05:51:13;;;;;;;13.23;9.57;;;;;;;14.01;90.25;101704.22;5030918;28;20459;-51
2022/05/22 05:53:41;;;;;;;10.77;8.47;;;;;;;13.99;89.58;101704.38;5030838;28;20478;-46
2022/05/22 05:56:09;;;;;;;12.40;9.57;;;;;;;14.01;89.65;101701.53;5031291;28;20798;-50
2022/05/22 05:58:51;;;;;;;10.07;8.03;;;;;;;14.03;89.58;101700.31;5031277;28;20440;-47
2022/05/22 06:01:20;;;;;;;18.20;8.20;;;;;;;14.11;89.38;101693.94;5030906;28;20454;-46
2022/05/22 06:03:48;;;;;;;11.07;7.97;;;;;;;14.18;88.73;101692.97;5030547;28;20476;-47
2022/05/22 06:06:18;;;;;;;12.67;8.10;;;;;;;14.28;89.37;101696.09;5031173;28;20988;-50
2022/05/22 06:08:46;;;;;;;10.33;8.20;;;;;;;14.33;88.22;101690.19;5031109;28;20555;-48
2022/05/22 06:11:13;;;;;;;13.70;8.40;;;;;;;14.42;88.23;101689.00;5031019;28;20999;-47
2022/05/22 06:13:41;;;;;;;11.57;7.63;;;;;;;14.48;87.26;101684.69;5034217;28;20548;-50
2022/05/22 06:16:09;;;;;;;16.40;8.40;;;;;;;14.50;86.03;101680.78;5034331;28;20432;-47
2022/05/22 06:18:37;;;;;;;10.53;8.00;;;;;;;14.65;86.55;101694.91;5034639;28;20528;-50
2022/05/22 06:21:10;;;;;;;10.20;7.80;;;;;;;14.75;85.93;101687.31;5034259;28;20454;-48
2022/05/22 06:23:39;;;;;;;10.07;7.67;;;;;;;14.84;85.46;101679.91;5034071;28;20475;-47
2022/05/22 06:26:07;;;;;;;9.47;7.87;;;;;;;15.01;85.83;101673.13;5034403;28;20443;-50
2022/05/22 06:28:35;;;;;;;10.63;7.73;;;;;;;15.14;83.28;101678.50;5034171;28;20484;-50
2022/05/22 06:31:04;;;;;;;11.73;7.53;;;;;;;15.28;83.72;101677.53;5033916;28;20464;-51
2022/05/22 06:33:33;;;;;;;8.50;7.80;;;;;;;15.42;83.48;101681.03;5033821;28;20463;-48
2022/05/22 06:36:06;;;;;;;14.70;8.13;;;;;;;15.28;78.47;101684.75;5034259;28;20489;-46
2022/05/22 06:41:27;;;;;;;14.67;8.90;;;;;;;15.52;78.45;101684.19;4995151;28;20978;-48
2022/05/22 06:43:54;;;;;;;10.30;7.30;;;;;;;15.69;78.09;101684.59;5033676;28;20452;-47
2022/05/22 06:46:30;;;;;;;14.87;7.77;;;;;;;15.99;78.99;101691.19;5033969;28;20434;-46
2022/05/22 06:48:58;;;;;;;14.50;7.50;;;;;;;16.25;78.08;101687.63;5033894;28;20566;-47
2022/05/22 06:51:26;;;;;;;9.03;6.40;;;;;;;16.48;76.95;101693.38;5033552;28;20814;-51
2022/05/22 06:53:53;;;;;;;11.00;7.33;;;;;;;16.75;75.56;101686.06;5032190;28;20868;-50
2022/05/22 06:56:21;;;;;;;9.47;6.93;;;;;;;16.94;74.16;101682.41;5033895;28;20434;-50
2022/05/22 06:58:50;;;;;;;9.00;7.50;;;;;;;17.04;72.03;101680.91;5033817;28;20438;-51
2022/05/22 07:01:18;;;;;;;12.07;7.20;;;;;;;17.31;71.99;101686.13;5033070;28;20968;-48
2022/05/22 07:03:45;;;;;;;9.57;7.47;;;;;;;17.38;69.86;101686.94;5033241;28;20470;-52
2022/05/22 07:06:13;;;;;;;11.67;6.93;;;;;;;17.24;68.13;101691.56;5033463;28;20434;-50
2022/05/22 07:08:41;;;;;;;10.30;7.13;;;;;;;17.32;69.26;101688.63;5033234;28;20479;-51
2022/05/22 07:13:55;;;;;;;12.20;7.40;;;;;;;17.46;68.44;101686.66;5033079;28;20464;-50
2022/05/22 07:16:22;;;;;;;10.10;7.00;;;;;;;17.78;68.30;101684.75;5033313;28;20436;-46
2022/05/22 07:18:52;;;;;;;9.10;6.70;;;;;;;17.90;65.35;101686.50;5033294;28;20443;-50
2022/05/22 07:21:20;;;;;;;9.73;6.43;;;;;;;17.60;62.56;101685.53;5033004;28;20550;-51
2022/05/22 07:23:47;;;;;;;9.50;6.67;;;;;;;17.46;63.90;101687.50;5031881;28;20468;-53
2022/05/22 07:26:15;;;;;;;8.23;6.50;;;;;;;17.00;63.58;101684.25;5033227;28;20434;-49
2022/05/22 07:28:43;;;;;;;8.50;6.70;;;;;;;17.27;63.71;101690.31;5033005;28;20483;-50
2022/05/22 07:31:15;;;;;;;10.03;6.90;;;;;;;17.57;66.86;101683.28;5032571;28;20547;-48
2022/05/22 07:33:43;;;;;;;8.63;7.40;;;;;;;18.04;65.75;101681.84;5032602;28;20989;-47
2022/05/22 07:36:11;;;;;;;12.83;7.40;;;;;;;18.44;63.84;101688.44;5033037;28;20522;-48
2022/05/22 07:38:39;;;;;;;8.80;6.90;;;;;;;18.20;61.88;101687.47;5032598;28;20806;-50
2022/05/22 07:41:06;;;;;;;7.77;7.07;;;;;;;18.38;62.34;101689.34;5032676;28;20447;-50
2022/05/22 07:43:34;;;;;;;7.37;6.27;;;;;;;18.22;61.18;101685.34;5032260;28;21015;-46
2022/05/22 07:46:02;;;;;;;9.80;7.60;;;;;;;17.93;61.47;101680.69;5033033;28;20435;-50
2022/05/22 07:48:36;;;;;;;9.87;7.37;;;;;;;17.83;62.69;101688.44;5032868;28;20490;-50
2022/05/22 07:51:05;;;;;;;8.30;7.57;;;;;;;17.62;62.69;101681.56;5032471;28;20459;-50
2022/05/22 07:53:32;;;;;;;8.23;7.33;;;;;;;17.83;63.97;101691.13;5031732;28;20463;-51
2022/05/22 07:56:01;;;;;;;7.23;6.57;;;;;;;18.08;63.26;101688.41;5032473;28;20430;-49
2022/05/22 07:58:30;;;;;;;8.00;7.30;;;;;;;17.63;61.38;101688.63;5032740;28;20431;-46
2022/05/22 08:00:59;;;;;;;10.60;7.37;;;;;;;17.60;62.44;101689.06;5032362;28;20440;-51
2022/05/22 08:03:26;;;;;;;7.53;6.83;;;;;;;17.33;62.75;101694.81;5031967;28;20471;-51
2022/05/22 08:05:56;;;;;;;8.20;7.40;;;;;;;17.07;63.71;101685.88;5032026;28;20439;-49
2022/05/22 08:08:24;;;;;;;8.30;7.60;;;;;;;16.86;63.57;101688.88;5032370;28;20424;-47
2022/05/22 08:10:53;;;;;;;10.60;7.70;;;;;;;16.88;64.53;101696.75;5031930;28;20486;-48
2022/05/22 08:13:21;;;;;;;8.40;6.67;;;;;;;17.12;64.59;101677.13;5031893;28;20456;-48
2022/05/22 08:15:49;;;;;;;9.17;6.60;;;;;;;17.08;61.91;101684.00;5032406;28;20427;-53
2022/05/22 08:18:17;;;;;;;7.20;6.60;;;;;;;17.17;61.66;101680.81;5032307;28;20430;-48
2022/05/22 08:20:46;;;;;;;6.63;6.00;;;;;;;17.17;61.42;101687.28;5031550;28;20431;-50
2022/05/22 08:23:19;;;;;;;8.40;6.77;;;;;;;17.09;61.58;101688.34;5031659;28;20464;-48
2022/05/22 08:25:48;;;;;;;7.03;6.60;;;;;;;17.24;63.25;101680.78;5032333;28;20515;-48
2022/05/22 08:28:16;;;;;;;12.63;7.40;;;;;;;17.31;61.93;101676.19;5032178;28;20810;-46
2022/05/22 08:30:44;;;;;;;9.60;7.60;;;;;;;17.38;61.98;101671.56;5031656;28;20477;-46
2022/05/22 08:33:13;;;;;;;6.93;6.63;;;;;;;17.43;61.33;101679.84;5031651;28;20464;-51
2022/05/22 08:35:42;;;;;;;6.80;6.50;;;;;;;17.61;59.94;101674.53;5030779;28;20932;-48
2022/05/22 08:38:11;;;;;;;8.33;7.50;;;;;;;17.54;58.52;101672.88;5032134;28;20518;-51
2022/05/22 08:40:49;;;;;;;7.03;6.30;;;;;;;17.42;59.38;101677.34;5031757;28;20428;-47
2022/05/22 08:43:25;;;;;;;7.43;6.73;;;;;;;17.61;58.86;101679.94;5031273;28;20459;-50
2022/05/22 08:45:59;;;;;;;7.00;6.50;;;;;;;17.66;59.15;101676.56;5031881;28;20578;-46
2022/05/22 08:48:35;;;;;;;6.97;6.40;;;;;;;17.39;58.55;101677.78;5031838;28;20439;-48
2022/05/22 08:51:09;;;;;;;8.10;6.73;;;;;;;17.32;57.89;101674.31;5031493;28;21012;-48
2022/05/22 08:53:41;;;;;;;6.60;6.10;;;;;;;17.24;57.61;101674.56;5031336;28;20464;-48
2022/05/22 08:59:05;;;;;;;6.50;6.10;;;;;;;17.38;57.23;101668.84;5031982;28;20440;-50
2022/05/22 09:01:39;;;;;;;5.77;5.00;;;;;;;17.49;57.84;101684.34;5031433;28;20447;-50
2022/05/22 09:04:16;;;;;;;5.67;4.47;;;;;;;17.51;57.08;101681.41;5031309;28;20450;-48
2022/05/22 09:06:49;;;;;;;5.40;4.23;;;;;;;17.55;56.96;101682.69;5031640;28;20431;-51
2022/05/22 09:09:17;;;;;;;5.83;4.27;;;;;;;17.42;56.93;101682.72;5031523;28;20431;-49
2022/05/22 09:12:08;;;;;;;5.63;4.33;;;;;;;17.55;55.98;101674.59;5031404;28;20458;-53
2022/05/22 09:14:41;;;;;;;8.70;4.07;;;;;;;17.46;55.55;101668.59;5031463;28;20453;-49
2022/05/22 09:17:15;;;;;;;8.33;4.30;;;;;;;17.56;55.28;101676.25;5026777;28;20427;-47
2022/05/22 09:19:45;;;;;;;4.83;3.80;;;;;;;17.66;55.25;101676.56;5024428;28;20424;-52
2022/05/22 09:22:23;;;;;;;4.37;3.97;;;;;;;17.66;55.60;101681.94;5030985;28;20876;-47
2022/05/22 09:25:07;;;;;;;4.40;3.37;;;;;;;17.75;54.26;101672.53;5031625;28;20438;-48
2022/05/22 09:27:48;;;;;;;6.27;3.80;;;;;;;17.73;53.17;101682.72;5031470;28;20431;-45
2022/05/22 09:30:23;;;;;;;6.13;4.20;;;;;;;17.91;54.90;101677.38;5031785;28;20472;-47
2022/05/22 09:33:03;;;;;;;5.07;4.03;;;;;;;17.86;55.66;101679.91;5030562;28;20457;-45
2022/05/22 09:35:39;;;;;;;9.07;4.60;;;;;;;17.71;54.83;101681.31;5030219;28;20940;-45
2022/05/22 09:38:41;;;;;;;8.33;4.30;;;;;;;18.04;53.83;101682.63;5031272;28;20433;-45
2022/05/22 09:41:19;;;;;;;7.80;4.50;;;;;;;17.94;55.19;101679.63;5030672;28;20453;-46
2022/05/22 09:44:14;;;;;;;4.07;3.60;;;;;;;18.08;54.68;101683.03;5030821;28;20467;-46
2022/05/22 09:47:20;;;;;;;5.23;4.00;;;;;;;17.73;53.78;101682.72;5034428;28;20447;-45
2022/05/22 09:50:04;;;;;;;5.30;3.83;;;;;;;17.42;53.94;101686.25;5034909;28;21032;-45
2022/05/22 09:52:41;;;;;;;4.90;4.13;;;;;;;17.81;53.62;101670.81;5034153;28;20463;-45
2022/05/22 09:55:23;;;;;;;5.17;4.20;;;;;;;17.75;54.13;101686.03;5034880;28;20438;-45
2022/05/22 09:58:03;;;;;;;6.67;3.90;;;;;;;18.40;53.13;101675.63;5034983;28;20439;-47
2022/05/22 10:00:40;;;;;;;7.70;3.90;;;;;;;18.67;50.86;101675.09;5034606;28;20423;-45
2022/05/22 10:03:13;;;;;;;3.80;3.27;;;;;;;18.70;52.99;101679.22;5034280;28;21051;-43
2022/05/22 10:05:51;;;;;;;7.73;4.87;;;;;;;18.38;52.41;101670.44;5034735;28;20427;-48
2022/05/22 10:08:30;;;;;;;7.80;4.43;;;;;;;18.53;51.89;101667.38;5034837;28;20522;-47
2022/05/22 10:11:06;;;;;;;6.50;3.80;;;;;;;19.15;50.42;101666.13;5034220;28;20479;-47
2022/05/22 10:13:41;;;;;;;4.93;3.70;;;;;;;19.37;50.36;101672.66;5033975;28;20455;-47
2022/05/22 10:16:25;;;;;;;6.47;4.10;;;;;;;18.92;52.48;101666.03;5034820;28;21036;-47
2022/05/22 10:19:04;;;;;;;4.63;4.07;;;;;;;19.05;52.36;101668.56;5034667;28;20445;-49
2022/05/22 10:21:41;;;;;;;12.57;4.93;;;;;;;19.41;52.05;101673.06;5034257;28;20447;-48
2022/05/22 10:24:21;;;;;;;4.33;3.93;;;;;;;20.05;50.15;101672.97;5033921;28;20835;-48
2022/05/22 10:27:01;;;;;;;5.40;4.00;;;;;;;20.52;49.82;101672.94;5034759;28;20805;-49
2022/05/22 10:29:38;;;;;;;6.13;4.27;;;;;;;20.19;47.97;101670.88;5034407;28;20435;-49
2022/05/22 10:32:13;;;;;;;6.23;4.10;;;;;;;20.05;49.85;101670.28;5033384;28;20475;-46
2022/05/22 10:34:44;;;;;;;10.47;4.23;;;;;;;19.30;50.13;101661.94;5034543;28;20753;-46
2022/05/22 10:37:23;;;;;;;6.73;4.27;;;;;;;18.77;51.55;101672.69;5034493;28;20433;-48
2022/05/22 10:39:51;;;;;;;5.37;4.87;;;;;;;18.98;52.72;101673.25;5034066;28;20433;-46
2022/05/22 10:45:11;;;;;;;6.97;4.50;;;;;;;20.03;49.89;101660.75;5021428;28;20522;-46
2022/05/22 10:47:40;;;;;;;6.63;4.10;;;;;;;20.58;47.75;101664.66;5034203;28;20446;-50
2022/05/22 10:50:24;;;;;;;4.70;4.30;;;;;;;20.66;44.20;101655.34;5033959;28;20878;-47
2022/05/22 10:52:52;;;;;;;5.57;4.50;;;;;;;20.12;46.67;101659.31;5033524;28;20826;-49
2022/05/22 10:55:30;;;;;;;5.43;3.00;;;;;;;19.73;47.14;101661.69;5033672;28;20432;-46
2022/05/22 10:58:00;;;;;;;9.13;4.23;;;;;;;18.93;49.89;101655.03;5033133;28;20439;-47
2022/05/22 11:00:28;;;;;;;6.67;3.90;;;;;;;18.69;50.22;101653.28;5033657;28;20816;-47
2022/05/22 11:02:57;;;;;;;4.17;3.60;;;;;;;18.71;51.19;101656.56;5033263;28;20960;-49
2022/05/22 11:05:28;;;;;;;6.83;3.47;;;;;;;18.79;52.23;101661.63;5033646;28;20948;-51
2022/05/22 11:07:57;;;;;;;6.23;3.70;;;;;;;18.78;51.37;101657.31;5033562;28;20452;-46
2022/05/22 11:10:33;;;;;;;9.07;4.57;;;;;;;19.11;49.33;101652.28;5033435;28;20430;-47
2022/05/22 11:13:05;;;;;;;6.83;3.47;;;;;;;19.58;49.84;101657.78;5033176;28;20493;-50
2022/05/22 11:15:34;;;;;;;8.20;3.70;;;;;;;20.21;50.00;101650.59;5033600;28;20433;-48
2022/05/22 11:18:09;;;;;;;5.53;3.90;;;;;;;20.72;45.05;101638.94;5033484;28;20435;-48
2022/05/22 11:20:44;;;;;;;5.20;4.10;;;;;;;21.03;45.76;101640.31;5033355;28;20455;-47
2022/05/22 11:23:32;;;;;;;5.93;4.27;;;;;;;20.76;47.52;101641.97;5032955;28;20463;-47
2022/05/22 11:26:10;;;;;;;4.33;3.90;;;;;;;20.41;45.71;101636.69;5031548;28;20431;-46
2022/05/22 11:28:55;;;;;;;3.83;3.30;;;;;;;19.95;45.92;101637.53;5032945;28;20437;-46
2022/05/22 11:31:41;;;;;;;5.80;3.93;;;;;;;20.59;47.25;101624.84;5032484;28;20506;-48
2022/05/22 11:34:33;;;;;;;4.60;3.10;;;;;;;21.18;46.97;101627.06;5032287;28;21051;-48
2022/05/22 11:37:10;;;;;;;7.23;3.47;;;;;;;21.56;41.56;101631.78;5032957;28;20432;-51
2022/05/22 11:39:51;;;;;;;4.83;3.07;;;;;;;21.53;41.61;101624.94;5031523;28;20437;-49
2022/05/22 11:42:26;;;;;;;4.00;3.57;;;;;;;21.23;42.65;101620.91;5032355;28;20454;-48
2022/05/22 11:45:03;;;;;;;6.07;3.20;;;;;;;22.08;43.78;101621.41;5033031;28;20839;-47
2022/05/22 11:47:58;;;;;;;5.43;3.23;;;;;;;21.98;41.10;101613.16;5032887;28;20463;-46
2022/05/22 11:50:34;;;;;;;4.03;2.77;;;;;;;21.83;40.81;101610.19;5032711;28;20432;-46
2022/05/22 11:53:29;;;;;;;6.10;3.27;;;;;;;21.39;43.11;101610.06;5031718;28;21019;-46
2022/05/22 11:56:09;;;;;;;7.53;3.43;;;;;;;20.19;46.66;101625.63;5032857;28;20443;-46